createdAt,value
2022-12-11T00:01:57.544Z,100731.41
2022-12-11T00:04:24.284Z,100722.34
2022-12-11T00:06:51.044Z,100729.84
2022-12-11T00:09:18.869Z,100728.19
2022-12-11T00:11:45.636Z,100730.56
2022-12-11T00:14:13.114Z,100724.94
2022-12-11T00:16:40.046Z,100729.53
2022-12-11T00:19:06.873Z,100724.31
2022-12-11T00:21:33.717Z,100725.31
2022-12-11T00:24:00.409Z,100726.50
2022-12-11T00:26:27.001Z,100727.19
2022-12-11T00:28:55.558Z,100728.00
2022-12-11T00:31:24.144Z,100735.47
2022-12-11T00:33:51.411Z,100734.16
2022-12-11T00:36:21.827Z,100739.56
2022-12-11T00:38:49.590Z,100737.69
2022-12-11T00:41:17.157Z,100734.72
2022-12-11T00:43:44.178Z,100738.22
2022-12-11T00:46:11.587Z,100737.69
2022-12-11T00:48:38.307Z,100741.44
2022-12-11T00:51:05.068Z,100731.16
2022-12-11T00:53:31.693Z,100731.50
2022-12-11T00:55:58.319Z,100734.91
2022-12-11T00:58:24.942Z,100737.50
2022-12-11T01:00:51.984Z,100728.06
2022-12-11T01:03:18.737Z,100725.25
2022-12-11T01:05:53.600Z,100720.91
2022-12-11T01:08:20.490Z,100726.06
2022-12-11T01:10:47.152Z,100720.72
2022-12-11T01:13:13.806Z,100712.00
2022-12-11T01:15:45.399Z,100720.00
2022-12-11T01:18:14.400Z,100723.66
2022-12-11T01:20:42.561Z,100730.91
2022-12-11T01:23:13.074Z,100728.81
2022-12-11T01:25:40.097Z,100720.78
2022-12-11T01:28:07.813Z,100732.09
2022-12-11T01:30:35.786Z,100726.94
2022-12-11T01:33:02.703Z,100730.69
2022-12-11T01:35:29.304Z,100727.69
2022-12-11T01:37:56.072Z,100717.81
2022-12-11T01:40:23.026Z,100720.59
2022-12-11T01:42:50.326Z,100735.34
2022-12-11T01:45:38.912Z,100728.56
2022-12-11T01:48:12.324Z,100728.31
2022-12-11T01:50:54.892Z,100722.97
2022-12-11T01:53:27.740Z,100721.22
2022-12-11T01:55:57.104Z,100724.44
2022-12-11T01:58:29.071Z,100718.91
2022-12-11T02:00:56.917Z,100708.66
2022-12-11T02:03:23.544Z,100712.44
2022-12-11T02:05:50.244Z,100707.28
2022-12-11T02:08:17.094Z,100708.00
2022-12-11T02:11:05.662Z,100711.75
2022-12-11T02:14:09.104Z,100704.53
2022-12-11T02:16:56.519Z,100705.28
2022-12-11T02:19:53.263Z,100709.16
2022-12-11T02:22:28.265Z,100705.34
2022-12-11T02:25:42.945Z,100699.56
2022-12-11T02:28:38.158Z,100693.00
2022-12-11T02:31:12.340Z,100692.09
2022-12-11T02:33:52.330Z,100694.97
2022-12-11T02:36:23.637Z,100691.47
2022-12-11T02:38:53.368Z,100693.81
2022-12-11T02:41:23.182Z,100689.59
2022-12-11T02:43:50.802Z,100696.88
2022-12-11T02:46:20.637Z,100692.47
2022-12-11T02:48:50.096Z,100693.00
2022-12-11T02:51:21.999Z,100695.97
2022-12-11T02:53:51.373Z,100689.84
2022-12-11T02:56:29.411Z,100680.25
2022-12-11T02:59:01.831Z,100682.31
2022-12-11T03:01:29.138Z,100679.53
2022-12-11T03:03:56.577Z,100677.56
2022-12-11T03:06:31.383Z,100685.50
2022-12-11T03:08:57.847Z,100678.38
2022-12-11T03:11:24.301Z,100666.69
2022-12-11T03:13:51.432Z,100671.81
2022-12-11T03:16:29.506Z,100675.72
2022-12-11T03:19:08.897Z,100684.38
2022-12-11T03:21:48.773Z,100678.38
2022-12-11T03:24:23.116Z,100680.03
2022-12-11T03:26:56.865Z,100679.06
2022-12-11T03:29:30.175Z,100683.75
2022-12-11T03:32:06.892Z,100684.56
2022-12-11T03:34:44.513Z,100682.69
2022-12-11T03:37:13.869Z,100681.69
2022-12-11T03:39:47.188Z,100683.44
2022-12-11T03:42:16.660Z,100685.50
2022-12-11T03:44:48.215Z,100679.06
2022-12-11T03:47:20.457Z,100683.50
2022-12-11T03:49:49.143Z,100683.88
2022-12-11T03:52:17.258Z,100678.38
2022-12-11T03:54:46.176Z,100678.88
2022-12-11T03:57:21.282Z,100684.53
2022-12-11T03:59:48.593Z,100680.69
2022-12-11T04:02:15.103Z,100674.09
2022-12-11T04:04:42.365Z,100682.00
2022-12-11T04:07:09.593Z,100675.34
2022-12-11T04:09:36.313Z,100681.50
2022-12-11T04:12:03.018Z,100678.50
2022-12-11T04:14:48.141Z,100669.91
2022-12-11T04:17:34.649Z,100671.53
2022-12-11T04:20:19.794Z,100664.56
2022-12-11T04:23:04.747Z,100658.22
2022-12-11T04:25:31.248Z,100662.63
2022-12-11T04:27:57.781Z,100654.53
2022-12-11T04:30:30.809Z,100659.91
2022-12-11T04:33:00.432Z,100651.41
2022-12-11T04:35:27.253Z,100652.44
2022-12-11T04:37:53.740Z,100651.31
2022-12-11T04:40:20.398Z,100654.09
2022-12-11T04:42:47.021Z,100652.13
2022-12-11T04:45:14.023Z,100646.81
2022-12-11T04:47:41.644Z,100649.88
2022-12-11T04:50:10.283Z,100633.06
2022-12-11T04:52:36.830Z,100641.75
2022-12-11T04:55:08.113Z,100641.97
2022-12-11T04:57:35.120Z,100641.50
2022-12-11T05:00:02.091Z,100644.75
2022-12-11T05:02:28.645Z,100654.31
2022-12-11T05:04:55.139Z,100648.75
2022-12-11T05:07:21.629Z,100645.44
2022-12-11T05:09:48.104Z,100649.69
2022-12-11T05:12:14.610Z,100651.75
2022-12-11T05:14:41.063Z,100655.84
2022-12-11T05:17:07.554Z,100658.78
2022-12-11T05:19:34.035Z,100653.66
2022-12-11T05:22:00.636Z,100653.28
2022-12-11T05:24:27.079Z,100653.28
2022-12-11T05:26:53.566Z,100642.88
2022-12-11T05:29:20.255Z,100648.69
2022-12-11T05:31:46.752Z,100641.41
2022-12-11T05:34:15.115Z,100646.41
2022-12-11T05:36:41.875Z,100637.66
2022-12-11T05:39:09.556Z,100641.16
2022-12-11T05:41:36.072Z,100636.81
2022-12-11T05:44:02.602Z,100633.44
2022-12-11T05:46:30.819Z,100638.50
2022-12-11T05:49:00.255Z,100634.94
2022-12-11T05:51:28.113Z,100634.84
2022-12-11T05:53:55.922Z,100634.66
2022-12-11T05:56:26.323Z,100635.59
2022-12-11T05:58:54.222Z,100631.44
2022-12-11T06:01:22.769Z,100631.19
2022-12-11T06:03:49.706Z,100632.31
2022-12-11T06:06:16.902Z,100637.03
2022-12-11T06:08:43.599Z,100633.31
2022-12-11T06:11:13.451Z,100628.31
2022-12-11T06:13:39.989Z,100635.25
2022-12-11T06:16:07.809Z,100627.16
2022-12-11T06:18:39.415Z,100626.72
2022-12-11T06:21:19.644Z,100629.75
2022-12-11T06:23:47.690Z,100624.59
2022-12-11T06:26:16.119Z,100626.94
2022-12-11T06:28:42.770Z,100626.03
2022-12-11T06:31:09.432Z,100624.53
2022-12-11T06:33:36.219Z,100628.03
2022-12-11T06:36:08.407Z,100629.03
2022-12-11T06:38:35.248Z,100622.84
2022-12-11T06:41:04.808Z,100625.59
2022-12-11T06:43:36.536Z,100618.81
2022-12-11T06:46:08.031Z,100622.91
2022-12-11T06:48:34.872Z,100615.94
2022-12-11T06:51:09.195Z,100626.53
2022-12-11T06:53:36.151Z,100618.69
2022-12-11T06:56:11.962Z,100632.56
2022-12-11T06:58:39.341Z,100630.81
2022-12-11T07:01:22.862Z,100631.81
2022-12-11T07:03:49.655Z,100631.38
2022-12-11T07:06:17.296Z,100643.25
2022-12-11T07:08:43.851Z,100636.41
2022-12-11T07:11:12.997Z,100642.59
2022-12-11T07:13:41.943Z,100637.41
2022-12-11T07:16:11.047Z,100638.34
2022-12-11T07:18:42.948Z,100642.44
2022-12-11T07:21:12.796Z,100646.06
2022-12-11T07:23:40.256Z,100643.66
2022-12-11T07:26:09.645Z,100638.22
2022-12-11T07:28:36.363Z,100642.94
2022-12-11T07:31:10.781Z,100643.88
2022-12-11T07:33:37.309Z,100641.66
2022-12-11T07:36:06.390Z,100642.84
2022-12-11T07:38:33.437Z,100640.22
2022-12-11T07:41:05.368Z,100647.25
2022-12-11T07:43:32.244Z,100645.56
2022-12-11T07:46:19.987Z,100651.59
2022-12-11T07:48:48.034Z,100650.53
2022-12-11T07:51:27.716Z,100652.06
2022-12-11T07:53:57.403Z,100646.69
2022-12-11T07:56:24.416Z,100642.44
2022-12-11T07:58:50.954Z,100646.25
2022-12-11T08:01:23.551Z,100645.50
2022-12-11T08:03:50.804Z,100649.13
2022-12-11T08:06:17.523Z,100643.31
2022-12-11T08:08:44.256Z,100653.50
2022-12-11T08:11:13.034Z,100650.50
2022-12-11T08:13:40.620Z,100643.53
2022-12-11T08:16:09.987Z,100645.66
2022-12-11T08:18:37.404Z,100646.66
2022-12-11T08:21:13.207Z,100644.16
2022-12-11T08:23:40.092Z,100645.88
2022-12-11T08:26:09.314Z,100654.47
2022-12-11T08:28:36.271Z,100654.78
2022-12-11T08:31:08.099Z,100655.03
2022-12-11T08:33:36.340Z,100653.06
2022-12-11T08:36:04.633Z,100646.44
2022-12-11T08:38:31.421Z,100643.09
2022-12-11T08:40:57.918Z,100645.22
2022-12-11T08:43:24.696Z,100645.22
2022-12-11T08:45:51.299Z,100644.63
2022-12-11T08:48:17.818Z,100650.59
2022-12-11T08:50:44.289Z,100650.81
2022-12-11T08:53:12.390Z,100648.38
2022-12-11T08:55:38.934Z,100640.53
2022-12-11T08:58:05.591Z,100642.16
2022-12-11T09:00:32.074Z,100649.69
2022-12-11T09:02:58.576Z,100639.25
2022-12-11T09:05:25.069Z,100639.25
2022-12-11T09:07:51.635Z,100640.56
2022-12-11T09:10:18.453Z,100640.13
2022-12-11T09:12:44.924Z,100641.28
2022-12-11T09:15:11.957Z,100646.16
2022-12-11T09:17:38.687Z,100640.66
2022-12-11T09:20:05.689Z,100646.88
2022-12-11T09:22:33.705Z,100651.16
2022-12-11T09:25:00.240Z,100648.13
2022-12-11T09:27:26.762Z,100645.91
2022-12-11T09:29:53.244Z,100649.81
2022-12-11T09:32:19.709Z,100645.00
2022-12-11T09:34:46.179Z,100650.88
2022-12-11T09:37:12.701Z,100647.94
2022-12-11T09:39:39.237Z,100648.88
2022-12-11T09:42:14.261Z,100654.84
2022-12-11T09:44:49.759Z,100651.06
2022-12-11T09:47:22.115Z,100654.47
2022-12-11T09:49:54.102Z,100647.94
2022-12-11T09:52:28.706Z,100646.78
2022-12-11T09:55:02.325Z,100638.09
2022-12-11T09:57:39.708Z,100634.97
2022-12-11T10:00:19.153Z,100641.31
2022-12-11T10:03:02.846Z,100641.06
2022-12-11T10:05:38.062Z,100642.75
2022-12-11T10:08:20.675Z,100642.38
2022-12-11T10:10:52.347Z,100643.69
2022-12-11T10:13:41.485Z,100644.97
2022-12-11T10:16:14.081Z,100636.91
2022-12-11T10:18:41.403Z,100632.25
2022-12-11T10:21:09.378Z,100636.44
2022-12-11T10:23:47.963Z,100635.63
2022-12-11T10:26:18.349Z,100627.91
2022-12-11T10:28:44.991Z,100625.94
2022-12-11T10:31:14.299Z,100622.53
2022-12-11T10:34:00.710Z,100620.06
2022-12-11T10:36:36.235Z,100628.75
2022-12-11T10:39:04.059Z,100631.75
2022-12-11T10:41:45.351Z,100622.41
2022-12-11T10:44:22.479Z,100623.00
2022-12-11T10:47:00.864Z,100614.81
2022-12-11T10:49:30.200Z,100617.41
2022-12-11T10:52:01.271Z,100610.50
2022-12-11T10:54:40.211Z,100604.78
2022-12-11T10:57:09.865Z,100600.31
2022-12-11T10:59:50.161Z,100598.22
2022-12-11T11:02:23.710Z,100605.34
2022-12-11T11:04:51.650Z,100596.72
2022-12-11T11:07:18.045Z,100598.47
2022-12-11T11:09:44.929Z,100585.69
2022-12-11T11:12:27.293Z,100595.19
2022-12-11T11:15:06.563Z,100588.53
2022-12-11T11:17:51.115Z,100594.38
2022-12-11T11:20:24.516Z,100586.28
2022-12-11T11:22:53.658Z,100588.72
2022-12-11T11:25:25.709Z,100594.09
2022-12-11T11:27:56.476Z,100583.13
2022-12-11T11:30:36.599Z,100589.31
2022-12-11T11:33:17.583Z,100594.84
2022-12-11T11:35:54.538Z,100586.84
2022-12-11T11:39:02.674Z,100586.00
2022-12-11T11:41:52.190Z,100581.69
2022-12-11T11:44:29.876Z,100573.38
2022-12-11T11:47:07.070Z,100579.25
2022-12-11T11:50:08.394Z,100577.75
2022-12-11T11:52:41.470Z,100575.16
2022-12-11T11:55:22.109Z,100567.66
2022-12-11T11:57:58.213Z,100567.19
2022-12-11T12:00:33.287Z,100564.28
2022-12-11T12:03:03.653Z,100556.41
2022-12-11T12:05:43.411Z,100557.84
2022-12-11T12:08:35.810Z,100554.09
2022-12-11T12:11:21.014Z,100550.56
2022-12-11T12:13:52.965Z,100554.44
2022-12-11T12:16:53.777Z,100559.81
2022-12-11T12:19:20.440Z,100565.41
2022-12-11T12:21:51.025Z,100548.81
2022-12-11T12:24:37.347Z,100555.25
2022-12-11T12:27:50.033Z,100548.69
2022-12-11T12:30:06.283Z,100544.72
2022-12-11T12:32:35.787Z,100544.84
2022-12-11T12:35:12.090Z,100542.72
2022-12-11T12:37:54.752Z,100541.31
2022-12-11T12:41:01.870Z,100537.59
2022-12-11T12:43:46.451Z,100537.94
2022-12-11T12:46:27.915Z,100536.53
2022-12-11T12:48:56.891Z,100544.47
2022-12-11T12:51:24.742Z,100543.44
2022-12-11T12:54:00.517Z,100535.00
2022-12-11T12:56:30.608Z,100535.34
2022-12-11T12:58:57.669Z,100543.06
2022-12-11T13:01:27.402Z,100532.06
2022-12-11T13:04:05.953Z,100536.53
2022-12-11T13:06:45.931Z,100534.19
2022-12-11T13:09:14.800Z,100532.28
2022-12-11T13:11:41.794Z,100527.59
2022-12-11T13:14:14.137Z,100525.59
2022-12-11T13:16:46.005Z,100532.28
2022-12-11T13:19:18.445Z,100533.25
2022-12-11T13:22:04.085Z,100532.19
2022-12-11T13:24:33.179Z,100536.75
2022-12-11T13:27:24.315Z,100527.59
2022-12-11T13:29:51.130Z,100530.91
2022-12-11T13:32:17.601Z,100523.19
2022-12-11T13:34:51.359Z,100518.47
2022-12-11T13:37:25.971Z,100515.53
2022-12-11T13:39:52.992Z,100521.91
2022-12-11T13:42:29.346Z,100527.28
2022-12-11T13:44:56.154Z,100522.81
2022-12-11T13:47:23.913Z,100529.22
2022-12-11T13:49:55.432Z,100528.50
2022-12-11T13:52:25.895Z,100530.53
2022-12-11T13:54:59.072Z,100540.53
2022-12-11T13:57:28.336Z,100543.78
2022-12-11T13:59:57.230Z,100535.94
2022-12-11T14:02:30.444Z,100537.53
2022-12-11T14:05:06.877Z,100542.13
2022-12-11T14:07:36.958Z,100542.03
2022-12-11T14:10:15.932Z,100551.06
2022-12-11T14:13:27.929Z,100542.34
2022-12-11T14:15:54.879Z,100553.81
2022-12-11T14:18:24.597Z,100548.41
2022-12-11T14:20:59.679Z,100545.97
2022-12-11T14:23:28.936Z,100544.91
2022-12-11T14:26:16.976Z,100550.28
2022-12-11T14:28:43.752Z,100548.66
2022-12-11T14:31:15.878Z,100548.66
2022-12-11T14:33:51.706Z,100550.56
2022-12-11T14:36:18.885Z,100552.75
2022-12-11T14:38:54.022Z,100547.38
2022-12-11T14:41:27.008Z,100557.91
2022-12-11T14:43:57.605Z,100561.19
2022-12-11T14:46:43.834Z,100554.50
2022-12-11T14:49:46.539Z,100561.19
2022-12-11T14:52:36.567Z,100557.09
2022-12-11T14:55:09.094Z,100569.94
2022-12-11T14:57:36.875Z,100564.34
2022-12-11T15:00:04.656Z,100562.44
2022-12-11T15:02:34.575Z,100560.94
2022-12-11T15:05:12.353Z,100565.81
2022-12-11T15:07:41.728Z,100565.06
2022-12-11T15:10:25.720Z,100561.91
2022-12-11T15:12:53.491Z,100568.09
2022-12-11T15:15:20.265Z,100563.94
2022-12-11T15:17:52.697Z,100570.09
2022-12-11T15:20:30.119Z,100566.69
2022-12-11T15:23:01.335Z,100563.19
2022-12-11T15:25:30.287Z,100565.78
2022-12-11T15:27:59.602Z,100563.88
2022-12-11T15:30:29.796Z,100569.59
2022-12-11T15:33:11.466Z,100571.09
2022-12-11T15:35:40.100Z,100560.09
2022-12-11T15:38:24.871Z,100573.56
2022-12-11T15:40:51.338Z,100571.78
2022-12-11T15:43:17.842Z,100570.28
2022-12-11T15:45:44.439Z,100573.41
2022-12-11T15:48:11.360Z,100562.41
2022-12-11T15:50:37.808Z,100576.28
2022-12-11T15:53:04.330Z,100575.19
2022-12-11T15:55:34.806Z,100564.75
2022-12-11T15:58:05.825Z,100569.47
2022-12-11T16:00:32.340Z,100572.19
2022-12-11T16:02:58.981Z,100568.91
2022-12-11T16:05:26.386Z,100577.47
2022-12-11T16:07:54.540Z,100587.09
2022-12-11T16:10:22.441Z,100584.16
2022-12-11T16:12:49.611Z,100587.09
2022-12-11T16:15:23.110Z,100583.72
2022-12-11T16:17:50.273Z,100576.41
2022-12-11T16:20:17.595Z,100579.09
2022-12-11T16:22:44.632Z,100586.03
2022-12-11T16:25:11.664Z,100575.16
2022-12-11T16:27:38.415Z,100572.56
2022-12-11T16:30:05.351Z,100576.78
2022-12-11T16:32:31.838Z,100570.22
2022-12-11T16:35:00.719Z,100576.19
2022-12-11T16:37:27.339Z,100568.72
2022-12-11T16:39:53.846Z,100573.06
2022-12-11T16:42:20.317Z,100578.69
2022-12-11T16:44:47.016Z,100574.03
2022-12-11T16:47:13.507Z,100573.19
2022-12-11T16:49:41.138Z,100571.81
2022-12-11T16:52:07.881Z,100567.59
2022-12-11T16:54:34.627Z,100573.81
2022-12-11T16:57:01.124Z,100574.63
2022-12-11T16:59:29.984Z,100570.41
2022-12-11T17:01:58.970Z,100570.69
2022-12-11T17:04:28.486Z,100572.44
2022-12-11T17:06:54.968Z,100570.25
2022-12-11T17:09:21.432Z,100569.44
2022-12-11T17:11:47.991Z,100562.28
2022-12-11T17:14:14.430Z,100571.28
2022-12-11T17:16:40.954Z,100563.00
2022-12-11T17:19:07.567Z,100571.13
2022-12-11T17:21:34.030Z,100567.72
2022-12-11T17:24:00.529Z,100572.50
2022-12-11T17:26:28.517Z,100567.94
2022-12-11T17:28:57.001Z,100571.13
2022-12-11T17:31:23.658Z,100566.63
2022-12-11T17:33:50.387Z,100572.78
2022-12-11T17:36:19.660Z,100569.16
2022-12-11T17:38:46.454Z,100575.69
2022-12-11T17:41:20.074Z,100565.38
2022-12-11T17:43:48.691Z,100569.72
2022-12-11T17:46:15.226Z,100573.25
2022-12-11T17:48:42.998Z,100566.69
2022-12-11T17:51:12.088Z,100569.03
2022-12-11T17:53:38.711Z,100571.91
2022-12-11T17:56:08.117Z,100568.72
2022-12-11T17:58:35.349Z,100569.06
2022-12-11T18:01:07.981Z,100572.28
2022-12-11T18:03:35.241Z,100557.25
2022-12-11T18:06:08.868Z,100566.03
2022-12-11T18:08:35.919Z,100565.66
2022-12-11T18:11:11.619Z,100564.44
2022-12-11T18:13:39.248Z,100562.09
2022-12-11T18:16:24.404Z,100568.88
2022-12-11T18:18:52.060Z,100573.00
2022-12-11T18:21:22.509Z,100573.72
2022-12-11T18:23:50.362Z,100573.00
2022-12-11T18:26:18.358Z,100579.56
2022-12-11T18:28:46.127Z,100568.56
2022-12-11T18:31:13.445Z,100575.72
2022-12-11T18:33:41.666Z,100575.78
2022-12-11T18:36:08.791Z,100568.47
2022-12-11T18:38:36.181Z,100577.47
2022-12-11T18:41:04.590Z,100576.75
2022-12-11T18:43:31.194Z,100574.69
2022-12-11T18:45:57.811Z,100578.75
2022-12-11T18:48:24.773Z,100576.09
2022-12-11T18:50:52.226Z,100570.09
2022-12-11T18:53:19.518Z,100572.50
2022-12-11T18:55:48.717Z,100569.13
2022-12-11T18:58:17.817Z,100566.22
2022-12-11T19:00:45.850Z,100566.44
2022-12-11T19:03:13.992Z,100561.94
2022-12-11T19:05:43.645Z,100562.31
2022-12-11T19:08:12.570Z,100559.13
2022-12-11T19:10:47.054Z,100562.53
2022-12-11T19:13:14.570Z,100556.28
2022-12-11T19:15:43.193Z,100556.28
2022-12-11T19:18:10.696Z,100553.69
2022-12-11T19:21:03.268Z,100558.41
2022-12-11T19:23:25.752Z,100560.94
2022-12-11T19:25:52.297Z,100567.34
2022-12-11T19:28:18.911Z,100571.09
2022-12-11T19:30:47.418Z,100570.41
2022-12-11T19:33:14.086Z,100565.00
2022-12-11T19:35:40.996Z,100564.78
2022-12-11T19:38:08.357Z,100565.59
2022-12-11T19:40:39.861Z,100550.00
2022-12-11T19:43:06.358Z,100568.28
2022-12-11T19:45:32.902Z,100570.06
2022-12-11T19:47:59.375Z,100571.69
2022-12-11T19:50:25.879Z,100561.38
2022-12-11T19:52:53.503Z,100562.19
2022-12-11T19:55:21.492Z,100564.25
2022-12-11T19:57:48.003Z,100568.19
2022-12-11T20:00:14.872Z,100566.91
2022-12-11T20:02:41.651Z,100557.41
2022-12-11T20:05:09.171Z,100561.50
2022-12-11T20:07:35.988Z,100557.41
2022-12-11T20:10:02.693Z,100554.13
2022-12-11T20:12:29.520Z,100561.81
2022-12-11T20:14:56.004Z,100557.19
2022-12-11T20:17:22.518Z,100564.19
2022-12-11T20:19:49.534Z,100563.84
2022-12-11T20:22:16.025Z,100564.44
2022-12-11T20:24:42.517Z,100568.66
2022-12-11T20:27:09.514Z,100564.66
2022-12-11T20:29:37.304Z,100565.94
2022-12-11T20:32:04.052Z,100561.75
2022-12-11T20:34:30.975Z,100555.91
2022-12-11T20:36:57.534Z,100552.06
2022-12-11T20:39:24.325Z,100553.84
2022-12-11T20:41:50.803Z,100551.25
2022-12-11T20:44:17.387Z,100552.88
2022-12-11T20:46:43.834Z,100558.97
2022-12-11T20:49:12.952Z,100558.00
2022-12-11T20:51:40.300Z,100550.03
2022-12-11T20:54:07.246Z,100545.81
2022-12-11T20:56:33.893Z,100543.09
2022-12-11T20:59:00.869Z,100546.28
2022-12-11T21:01:30.508Z,100548.31
2022-12-11T21:03:58.157Z,100544.00
2022-12-11T21:06:33.453Z,100545.41
2022-12-11T21:09:02.803Z,100548.88
2022-12-11T21:11:29.390Z,100554.34
2022-12-11T21:13:55.984Z,100555.56
2022-12-11T21:16:23.559Z,100559.63
2022-12-11T21:18:50.101Z,100550.28
2022-12-11T21:21:17.248Z,100558.00
2022-12-11T21:23:44.815Z,100562.34
2022-12-11T21:26:12.178Z,100560.72
2022-12-11T21:28:38.672Z,100560.13
2022-12-11T21:31:08.306Z,100567.38
2022-12-11T21:33:35.512Z,100561.06
2022-12-11T21:36:02.929Z,100564.66
2022-12-11T21:38:29.968Z,100554.34
2022-12-11T21:40:56.642Z,100561.06
2022-12-11T21:43:24.709Z,100558.97
2022-12-11T21:46:00.845Z,100554.63
2022-12-11T21:48:28.196Z,100557.06
2022-12-11T21:50:54.707Z,100552.97
2022-12-11T21:53:21.287Z,100553.91
2022-12-11T21:55:47.779Z,100549.13
2022-12-11T21:58:14.315Z,100550.75
2022-12-11T22:00:41.011Z,100559.06
2022-12-11T22:03:07.712Z,100566.09
2022-12-11T22:05:34.195Z,100568.53
2022-12-11T22:08:00.775Z,100574.66
2022-12-11T22:10:28.325Z,100568.13
2022-12-11T22:12:54.939Z,100574.09
2022-12-11T22:15:21.499Z,100576.06
2022-12-11T22:17:47.986Z,100577.69
2022-12-11T22:20:14.553Z,100582.03
2022-12-11T22:22:41.136Z,100586.16
2022-12-11T22:25:07.989Z,100586.16
2022-12-11T22:27:34.913Z,100586.16
2022-12-11T22:30:01.440Z,100584.50
2022-12-11T22:32:27.942Z,100584.41
2022-12-11T22:34:56.227Z,100591.31
2022-12-11T22:37:22.833Z,100594.09
2022-12-11T22:39:49.588Z,100594.22
2022-12-11T22:42:16.530Z,100595.53
2022-12-11T22:44:43.041Z,100592.63
2022-12-11T22:47:09.500Z,100592.94
2022-12-11T22:49:36.029Z,100596.22
2022-12-11T22:52:02.859Z,100602.31
2022-12-11T22:54:29.423Z,100595.53
2022-12-11T22:56:57.985Z,100591.41
2022-12-11T22:59:24.509Z,100595.41
2022-12-11T23:01:50.964Z,100585.91
2022-12-11T23:04:17.539Z,100594.59
2022-12-11T23:06:44.037Z,100602.09
2022-12-11T23:09:11.563Z,100599.66
2022-12-11T23:11:38.854Z,100596.00
2022-12-11T23:14:08.283Z,100591.44
2022-12-11T23:16:35.092Z,100592.13
2022-12-11T23:19:01.925Z,100597.16
2022-12-11T23:21:29.377Z,100601.63
2022-12-11T23:23:56.834Z,100596.59
2022-12-11T23:26:24.270Z,100602.78
2022-12-11T23:28:50.913Z,100592.25
2022-12-11T23:31:17.660Z,100596.47
2022-12-11T23:33:44.825Z,100593.19
2022-12-11T23:36:12.125Z,100592.00
2022-12-11T23:38:40.132Z,100591.44
2022-12-11T23:41:08.738Z,100592.13
2022-12-11T23:43:36.244Z,100593.28
2022-12-11T23:46:04.618Z,100596.59
2022-12-11T23:48:31.251Z,100588.75
2022-12-11T23:50:59.966Z,100597.88
2022-12-11T23:53:27.531Z,100600.47
2022-12-11T23:55:54.440Z,100597.97
2022-12-11T23:58:21.296Z,100600.69
